Time;durP1;ratioP1;P1;durP2;ratioP2;P2;SDS_P1;SDS_P2;PMS_P1;PMS_P2;Temp;Humidity;BMP_temperature;BMP_pressure;BME280_temperature;BME280_humidity;BME280_pressure;Samples;Min_cycle;Max_cycle;Signal;HPM_P1;HPM_P2
2021/12/09 00:02:56;;;;;;;64.70;30.70;;;;;;;-3.87;86.83;97764.06;420443;1313;108555;-40
2021/12/09 00:13:06;;;;;;;86.20;32.80;;;;;;;-4.01;86.93;97749.86;419528;1313;96230;-39
2021/12/09 00:23:14;;;;;;;74.60;29.80;;;;;;;-4.05;86.96;97753.09;420649;1313;95367;-40
2021/12/09 00:33:22;;;;;;;46.40;22.70;;;;;;;-4.04;86.77;97742.20;420349;1314;109827;-40
2021/12/09 00:43:27;;;;;;;47.60;22.00;;;;;;;-4.09;86.76;97741.85;420304;1312;108939;-41
2021/12/09 00:53:36;;;;;;;55.40;24.20;;;;;;;-4.10;86.71;97733.20;420222;1313;96320;-40
2021/12/09 01:15:38;;;;;;;86.10;32.00;;;;;;;-4.32;86.72;97700.94;418141;1313;3287534;-40
2021/12/09 01:25:48;;;;;;;64.90;30.00;;;;;;;-4.32;86.76;97706.28;420492;1313;96269;-41
2021/12/09 01:35:55;;;;;;;57.70;25.30;;;;;;;-4.25;86.69;97695.89;420386;1313;110434;-41
2021/12/09 01:46:04;;;;;;;73.90;32.00;;;;;;;-4.25;86.65;97703.98;420498;1313;108900;-40
2021/12/09 01:56:20;;;;;;;92.10;38.00;;;;;;;-4.31;86.81;97703.26;420708;1313;95827;-40
2021/12/09 02:06:27;;;;;;;63.30;28.20;;;;;;;-4.38;86.82;97699.06;420388;1313;109978;-40
2021/12/09 02:16:35;;;;;;;58.50;27.30;;;;;;;-4.34;86.84;97696.29;420496;1313;108805;-40
2021/12/09 02:26:45;;;;;;;58.00;26.60;;;;;;;-4.32;86.92;97695.23;420539;1313;95926;-40
2021/12/09 02:36:54;;;;;;;66.50;28.30;;;;;;;-4.39;87.03;97685.24;421098;1304;109386;-40
2021/12/09 02:47:00;;;;;;;49.00;22.60;;;;;;;-4.42;87.05;97679.73;419752;1314;108461;-40
2021/12/09 02:57:09;;;;;;;45.50;20.50;;;;;;;-4.36;86.97;97675.84;420227;1311;106656;-40
2021/12/09 03:07:23;;;;;;;56.10;25.20;;;;;;;-4.28;87.03;97677.98;420864;1309;96279;-39
2021/12/09 03:17:29;;;;;;;66.90;27.60;;;;;;;-4.28;87.18;97665.73;420547;1309;108844;-39
2021/12/09 03:27:37;;;;;;;49.70;24.30;;;;;;;-4.33;87.21;97656.09;420676;1309;108832;-40
2021/12/09 03:37:45;;;;;;;56.00;24.40;;;;;;;-4.29;87.17;97669.47;420561;1310;95878;-40
2021/12/09 03:47:52;;;;;;;50.90;24.40;;;;;;;-4.19;87.19;97687.06;420676;1309;108730;-40
2021/12/09 03:57:59;;;;;;;82.20;32.30;;;;;;;-4.19;87.23;97682.67;420767;1309;95817;-39
2021/12/09 04:18:14;;;;;;;57.10;26.30;;;;;;;-4.16;87.33;97672.96;421070;1309;109753;-40
2021/12/09 04:28:22;;;;;;;41.80;20.30;;;;;;;-4.07;87.27;97666.38;421342;1309;108861;-40
2021/12/09 04:38:31;;;;;;;42.40;20.90;;;;;;;-4.02;87.24;97675.20;420951;1309;96604;-40
2021/12/09 04:48:39;;;;;;;63.10;26.70;;;;;;;-3.94;87.35;97695.20;421218;1310;109642;-42
2021/12/09 04:58:48;;;;;;;85.10;32.20;;;;;;;-3.99;87.25;97697.63;421242;1309;109093;-39
2021/12/09 05:08:55;;;;;;;74.80;34.10;;;;;;;-4.02;87.14;97687.78;421209;1309;108838;-39
2021/12/09 05:19:05;;;;;;;64.40;30.10;;;;;;;-3.93;87.32;97695.80;421265;1310;96252;-40
2021/12/09 05:29:14;;;;;;;68.80;29.00;;;;;;;-3.82;87.31;97687.19;421186;1309;108598;-40
2021/12/09 05:39:22;;;;;;;82.80;33.00;;;;;;;-3.84;87.38;97695.71;421369;1309;96128;-41
2021/12/09 05:49:29;;;;;;;83.60;32.10;;;;;;;-3.88;87.53;97697.83;421199;1309;95855;-40
2021/12/09 06:09:45;;;;;;;56.10;26.80;;;;;;;-3.75;87.25;97692.11;421183;1309;108865;-39
2021/12/09 06:19:52;;;;;;;75.50;30.80;;;;;;;-3.64;87.22;97679.99;421313;1309;97232;-40
2021/12/09 06:40:07;;;;;;;93.60;36.30;;;;;;;-3.69;87.26;97707.55;421294;1309;108898;-40
2021/12/09 06:50:16;;;;;;;77.20;35.20;;;;;;;-3.65;87.27;97699.88;421266;1309;96261;-40
2021/12/09 07:00:26;;;;;;;65.30;30.70;;;;;;;-3.55;87.29;97703.81;421175;1309;109643;-40
2021/12/09 07:10:34;;;;;;;54.80;26.80;;;;;;;-3.43;87.37;97698.21;421327;1309;106847;-40
2021/12/09 07:20:41;;;;;;;68.80;31.30;;;;;;;-3.37;87.31;97702.63;421337;1309;96215;-40
2021/12/09 07:30:46;;;;;;;77.70;33.20;;;;;;;-3.24;87.66;97702.67;421202;1309;110078;-40
2021/12/09 07:40:52;;;;;;;82.20;35.50;;;;;;;-3.12;87.38;97710.34;421255;1309;108905;-40
2021/12/09 07:51:00;;;;;;;55.70;27.20;;;;;;;-2.98;87.07;97719.19;421200;1309;95608;-41
2021/12/09 08:01:07;;;;;;;85.30;35.00;;;;;;;-2.85;87.20;97724.36;421355;1309;109847;-41
2021/12/09 08:11:15;;;;;;;81.40;34.90;;;;;;;-2.83;87.21;97747.70;421334;1309;108802;-40
2021/12/09 08:21:24;;;;;;;52.80;26.50;;;;;;;-2.75;87.31;97742.04;421263;1309;108851;-39
2021/12/09 08:31:33;;;;;;;51.40;27.00;;;;;;;-2.49;87.15;97758.98;421273;1309;97167;-40
2021/12/09 08:41:52;;;;;;;69.90;30.70;;;;;;;-2.35;87.36;97763.23;421193;1309;109766;-41
2021/12/09 08:52:00;;;;;;;86.00;35.10;;;;;;;-2.44;87.06;97756.20;421456;1309;108986;-41
2021/12/09 09:02:05;;;;;;;63.30;28.40;;;;;;;-2.45;87.03;97747.58;421316;1309;108950;-40
2021/12/09 09:12:10;;;;;;;56.40;26.20;;;;;;;-2.32;86.91;97734.59;421301;1309;96980;-40
2021/12/09 09:22:17;;;;;;;63.30;28.60;;;;;;;-2.11;87.12;97729.05;418665;1309;3383559;-41
2021/12/09 09:32:24;;;;;;;68.60;32.20;;;;;;;-1.80;86.79;97736.52;421483;1309;108321;-41
2021/12/09 10:12:58;;;;;;;80.30;35.10;;;;;;;-1.65;86.27;97686.38;421697;1309;108945;-41
2021/12/09 10:23:23;;;;;;;46.00;24.30;;;;;;;-1.63;86.17;97690.65;421828;1309;98051;-40
2021/12/09 10:33:30;;;;;;;57.90;28.00;;;;;;;-1.51;86.23;97674.79;421654;1309;111668;-41
2021/12/09 10:43:48;;;;;;;76.90;33.40;;;;;;;-1.48;86.13;97663.14;421877;1310;108979;-40
2021/12/09 10:53:58;;;;;;;61.40;29.20;;;;;;;-1.49;85.89;97667.40;421910;1309;98626;-41
2021/12/09 11:04:04;;;;;;;48.50;22.80;;;;;;;-1.46;85.81;97651.88;421951;1309;111049;-41
2021/12/09 11:14:14;;;;;;;70.90;30.70;;;;;;;-1.41;86.16;97645.55;422178;1310;108844;-40
2021/12/09 11:24:24;;;;;;;50.90;24.70;;;;;;;-1.43;85.81;97649.42;421934;1309;97974;-40
2021/12/09 11:34:37;;;;;;;52.80;25.60;;;;;;;-1.34;85.59;97632.80;422241;1309;111007;-41
2021/12/09 11:44:43;;;;;;;76.80;34.50;;;;;;;-1.21;85.92;97630.14;421939;1310;108719;-41
2021/12/09 12:46:56;;;;;;;66.60;31.20;;;;;;;-1.37;85.54;97601.49;422062;1309;108973;-41
2021/12/09 12:57:07;;;;;;;101.80;41.60;;;;;;;-1.33;85.76;97608.80;422163;1309;97976;-41
2021/12/09 13:17:39;;;;;;;108.40;47.10;;;;;;;-1.43;85.85;97618.95;421379;1312;111114;-41
2021/12/09 13:38:13;;;;;;;78.90;36.20;;;;;;;-1.41;85.55;97606.63;421992;1309;97945;-42
2021/12/09 13:48:28;;;;;;;96.00;39.90;;;;;;;-1.38;85.72;97596.27;421937;1310;111174;-40
2021/12/09 13:58:35;;;;;;;101.90;42.10;;;;;;;-1.44;85.83;97590.30;422035;1310;109623;-41
2021/12/09 14:08:49;;;;;;;98.60;38.10;;;;;;;-1.58;85.95;97580.14;421917;1309;107804;-40
2021/12/09 14:29:25;;;;;;;57.50;26.00;;;;;;;-1.63;85.88;97574.92;421768;1309;111094;-41
2021/12/09 14:39:32;;;;;;;56.20;27.20;;;;;;;-1.58;85.88;97590.39;421901;1310;109001;-41
2021/12/09 14:49:51;;;;;;;79.10;35.60;;;;;;;-1.54;85.98;97600.73;421984;1309;98585;-40
2021/12/09 14:59:58;;;;;;;77.00;35.90;;;;;;;-1.59;86.32;97595.48;421713;1309;111021;-40
2021/12/09 15:10:09;;;;;;;73.50;33.70;;;;;;;-1.62;85.98;97579.89;420376;1312;109317;-40
2021/12/09 15:30:40;;;;;;;59.20;29.40;;;;;;;-1.54;86.21;97536.96;422019;1309;110144;-41
2021/12/09 15:40:47;;;;;;;75.40;32.80;;;;;;;-1.56;86.26;97545.67;422050;1310;108936;-41
2021/12/09 15:50:56;;;;;;;82.10;35.30;;;;;;;-1.60;86.31;97541.19;422004;1309;96670;-40
2021/12/09 16:01:05;;;;;;;68.10;29.60;;;;;;;-1.62;86.28;97524.46;422112;1313;111103;-41
2021/12/09 16:11:20;;;;;;;59.80;27.40;;;;;;;-1.59;86.16;97517.75;421946;1309;106868;-41
2021/12/09 16:21:43;;;;;;;51.40;25.40;;;;;;;-1.56;86.36;97524.09;421440;1312;97911;-40
2021/12/09 16:31:51;;;;;;;76.00;32.00;;;;;;;-1.61;86.50;97524.99;422018;1309;108254;-41
2021/12/09 16:41:59;;;;;;;70.60;29.90;;;;;;;-1.67;86.56;97526.09;422002;1309;108769;-42
2021/12/09 16:52:05;;;;;;;59.90;25.70;;;;;;;-1.63;86.49;97519.77;421907;1309;97945;-40
2021/12/09 17:02:16;;;;;;;76.30;33.00;;;;;;;-1.63;86.73;97534.38;422382;1313;108675;-44
2021/12/09 17:12:31;;;;;;;120.70;47.70;;;;;;;-1.62;86.74;97551.81;421172;1312;97945;-39
2021/12/09 17:22:42;;;;;;;80.20;33.20;;;;;;;-1.63;86.81;97562.45;422180;1309;110107;-41
2021/12/09 17:32:53;;;;;;;91.80;37.60;;;;;;;-1.70;86.89;97568.88;421942;1310;106965;-40
2021/12/09 17:43:01;;;;;;;66.20;29.10;;;;;;;-1.68;86.82;97556.77;422182;1316;97945;-40
2021/12/09 17:53:09;;;;;;;77.30;32.60;;;;;;;-1.65;86.87;97541.36;421904;1316;108884;-40
2021/12/09 18:03:17;;;;;;;71.40;30.00;;;;;;;-1.57;86.75;97523.36;422178;1315;98048;-42
2021/12/09 18:13:25;;;;;;;72.30;31.90;;;;;;;-1.58;86.73;97516.57;421890;1310;111134;-40
2021/12/09 18:23:33;;;;;;;55.50;27.10;;;;;;;-1.57;86.67;97513.19;421870;1315;109414;-40
2021/12/09 18:33:42;;;;;;;93.70;39.40;;;;;;;-1.65;86.68;97509.65;422105;1311;98826;-39
2021/12/09 18:43:50;;;;;;;73.30;33.20;;;;;;;-1.80;86.71;97505.31;421866;1316;111080;-42
2021/12/09 18:53:57;;;;;;;55.50;28.00;;;;;;;-1.89;86.71;97503.92;422000;1316;107420;-40
2021/12/09 19:04:04;;;;;;;45.00;24.20;;;;;;;-1.89;86.73;97506.63;421812;1310;97939;-42
2021/12/09 19:14:14;;;;;;;43.40;22.70;;;;;;;-1.89;86.61;97508.42;420991;1312;111135;-40
2021/12/09 19:24:22;;;;;;;72.90;31.80;;;;;;;-1.89;86.94;97499.41;421928;1309;107796;-41
2021/12/09 19:34:29;;;;;;;51.40;23.60;;;;;;;-1.95;86.70;97484.61;421755;1309;108858;-41
2021/12/09 19:44:37;;;;;;;46.30;23.20;;;;;;;-2.05;86.61;97473.69;421881;1316;98036;-42
2021/12/09 19:54:44;;;;;;;37.20;21.20;;;;;;;-2.01;86.72;97466.64;421987;1309;111110;-40
2021/12/09 20:04:51;;;;;;;42.50;21.60;;;;;;;-1.99;86.99;97451.44;421987;1309;108833;-41
2021/12/09 20:14:59;;;;;;;96.60;37.00;;;;;;;-1.99;86.84;97452.76;422252;1310;98589;-40
2021/12/09 20:25:07;;;;;;;80.30;32.80;;;;;;;-2.02;86.71;97455.27;421931;1309;113291;-41
2021/12/09 20:35:14;;;;;;;61.50;28.10;;;;;;;-2.10;86.72;97451.21;422176;1309;111021;-40
2021/12/09 20:45:23;;;;;;;61.40;31.40;;;;;;;-2.02;86.70;97454.87;422041;1309;97945;-41
2021/12/09 20:55:30;;;;;;;79.90;33.70;;;;;;;-1.90;86.73;97441.72;422107;1309;111137;-41
2021/12/09 21:05:37;;;;;;;86.30;37.80;;;;;;;-1.89;86.77;97441.54;421914;1309;108831;-40
2021/12/09 21:15:46;;;;;;;91.10;41.20;;;;;;;-1.89;86.97;97427.63;422006;1309;97550;-40
2021/12/09 21:25:55;;;;;;;86.50;35.30;;;;;;;-1.90;87.06;97422.47;422181;1309;111152;-41
2021/12/09 21:36:03;;;;;;;113.80;47.10;;;;;;;-1.91;86.81;97423.49;421956;1310;108911;-40
2021/12/09 21:46:10;;;;;;;92.50;42.70;;;;;;;-1.90;86.79;97424.98;422271;1308;97989;-42
2021/12/09 21:56:19;;;;;;;75.80;37.40;;;;;;;-1.77;86.78;97416.72;421915;1309;111114;-40
2021/12/09 22:06:27;;;;;;;58.10;30.70;;;;;;;-1.62;86.87;97415.40;421903;1309;108496;-43
2021/12/09 22:16:36;;;;;;;95.30;42.70;;;;;;;-1.55;86.66;97404.39;421936;1309;98688;-39
2021/12/09 22:26:44;;;;;;;118.90;46.20;;;;;;;-1.60;86.90;97386.44;422009;1309;111210;-40
2021/12/09 22:36:51;;;;;;;111.40;48.30;;;;;;;-1.66;86.62;97374.51;421872;1310;109425;-40
2021/12/09 22:57:05;;;;;;;82.50;37.50;;;;;;;-1.76;86.79;97367.50;422021;1309;97578;-42
2021/12/09 23:07:13;;;;;;;81.10;36.50;;;;;;;-1.62;86.63;97370.62;421908;1309;107783;-41
2021/12/09 23:17:25;;;;;;;77.70;34.20;;;;;;;-1.49;86.75;97352.74;421862;1309;97591;-40
2021/12/09 23:27:33;;;;;;;80.10;34.30;;;;;;;-1.50;86.42;97337.78;421636;1309;111274;-41
2021/12/09 23:37:40;;;;;;;77.40;34.60;;;;;;;-1.66;86.40;97324.80;422029;1309;108877;-40
2021/12/09 23:47:47;;;;;;;93.20;40.50;;;;;;;-1.73;86.79;97306.53;421556;1309;108864;-43
2021/12/09 23:57:55;;;;;;;76.30;33.40;;;;;;;-1.80;86.63;97303.45;421813;1309;97958;-41
